createdAt,value
2017-10-14T00:00:39.713Z,0
2017-10-14T00:01:39.704Z,0
2017-10-14T00:02:39.665Z,0
2017-10-14T00:03:39.673Z,0
2017-10-14T00:04:39.391Z,0
2017-10-14T00:05:39.319Z,0
2017-10-14T00:06:39.600Z,0
2017-10-14T00:07:39.271Z,0
2017-10-14T00:08:39.272Z,0
2017-10-14T00:09:39.227Z,0
2017-10-14T00:10:39.530Z,0
2017-10-14T00:11:39.515Z,0
2017-10-14T00:12:39.198Z,0
2017-10-14T00:13:39.491Z,0
2017-10-14T00:14:39.500Z,0
2017-10-14T00:15:39.450Z,0
2017-10-14T00:16:39.181Z,0
2017-10-14T00:17:39.424Z,0
2017-10-14T00:18:39.093Z,0
2017-10-14T00:19:38.422Z,0
2017-10-14T00:20:38.732Z,0
2017-10-14T00:21:38.383Z,0
2017-10-14T00:22:39.023Z,0
2017-10-14T00:23:38.670Z,0
2017-10-14T00:24:38.986Z,0
2017-10-14T00:25:38.661Z,0
2017-10-14T00:26:38.296Z,0
2017-10-14T00:27:39.252Z,0
2017-10-14T00:28:39.227Z,0
2017-10-14T00:29:38.570Z,0
2017-10-14T00:30:38.891Z,0
2017-10-14T00:31:39.174Z,0
2017-10-14T00:32:38.546Z,0
2017-10-14T00:33:39.152Z,0
2017-10-14T00:34:38.805Z,0
2017-10-14T00:35:39.117Z,0
2017-10-14T00:36:38.782Z,0
2017-10-14T00:37:39.095Z,0
2017-10-14T00:38:39.072Z,0
2017-10-14T00:39:38.762Z,0
2017-10-14T00:40:38.480Z,0
2017-10-14T00:41:38.046Z,0
2017-10-14T00:42:39.022Z,0
2017-10-14T00:43:38.721Z,0
2017-10-14T00:44:38.661Z,0
2017-10-14T00:45:38.972Z,0
2017-10-14T00:46:38.308Z,0
2017-10-14T00:47:38.283Z,0
2017-10-14T00:48:38.313Z,0
2017-10-14T00:49:38.888Z,0
2017-10-14T00:50:38.300Z,0
2017-10-14T00:51:38.867Z,0
2017-10-14T00:52:38.518Z,0
2017-10-14T00:53:38.492Z,0
2017-10-14T00:54:38.550Z,0
2017-10-14T00:55:38.468Z,0
2017-10-14T00:56:38.446Z,0
2017-10-14T00:57:38.421Z,0
2017-10-14T00:58:38.433Z,0
2017-10-14T00:59:38.412Z,0
2017-10-14T01:00:38.376Z,0
2017-10-14T01:01:38.041Z,0
2017-10-14T01:02:38.662Z,0
2017-10-14T01:03:38.676Z,0
2017-10-14T01:04:38.353Z,0
2017-10-14T01:05:38.430Z,0
2017-10-14T01:06:37.670Z,0
2017-10-14T01:07:38.612Z,0
2017-10-14T01:08:38.619Z,0
2017-10-14T01:09:38.383Z,0
2017-10-14T01:10:38.575Z,0
2017-10-14T01:11:38.243Z,0
2017-10-14T01:12:38.619Z,0
2017-10-14T01:13:38.239Z,0
2017-10-14T01:14:38.552Z,0
2017-10-14T01:15:38.140Z,0
2017-10-14T01:16:38.552Z,0
2017-10-14T01:17:38.414Z,0
2017-10-14T01:18:38.498Z,0
2017-10-14T01:19:38.500Z,0
2017-10-14T01:20:38.386Z,0
2017-10-14T01:21:38.107Z,0
2017-10-14T01:22:38.106Z,0
2017-10-14T01:23:37.690Z,0
2017-10-14T01:24:38.339Z,0
2017-10-14T01:25:37.963Z,0
2017-10-14T01:26:37.965Z,0
2017-10-14T01:27:38.252Z,0
2017-10-14T01:28:38.329Z,0
2017-10-14T01:29:37.238Z,0
2017-10-14T01:30:38.211Z,0
2017-10-14T01:31:37.546Z,0
2017-10-14T01:32:38.253Z,0
2017-10-14T01:33:37.858Z,0
2017-10-14T01:34:38.337Z,0
2017-10-14T01:35:37.811Z,0
2017-10-14T01:36:37.204Z,0
2017-10-14T01:37:37.132Z,0
2017-10-14T01:38:37.748Z,0
2017-10-14T01:39:38.086Z,0
2017-10-14T01:40:37.793Z,0
2017-10-14T01:41:37.372Z,0
2017-10-14T01:42:37.690Z,0
2017-10-14T01:43:37.986Z,0
2017-10-14T01:44:37.988Z,0
2017-10-14T01:45:37.978Z,0
2017-10-14T01:46:38.082Z,0
2017-10-14T01:47:37.928Z,0
2017-10-14T01:48:36.953Z,0
2017-10-14T01:49:38.043Z,0
2017-10-14T01:50:37.881Z,0
2017-10-14T01:51:37.562Z,0
2017-10-14T01:52:37.942Z,0
2017-10-14T01:53:37.803Z,0
2017-10-14T01:54:37.166Z,0
2017-10-14T01:55:37.840Z,0
2017-10-14T01:56:37.141Z,0
2017-10-14T01:57:37.111Z,0
2017-10-14T01:58:37.844Z,0
2017-10-14T01:59:37.783Z,0
2017-10-14T02:00:36.751Z,0
2017-10-14T02:01:36.707Z,0
2017-10-14T02:02:37.087Z,0
2017-10-14T02:03:37.002Z,0
2017-10-14T02:04:37.403Z,0
2017-10-14T02:05:37.291Z,0
2017-10-14T02:06:37.323Z,0
2017-10-14T02:07:36.960Z,0
2017-10-14T02:08:36.972Z,0
2017-10-14T02:09:36.611Z,0
2017-10-14T02:10:37.281Z,0
2017-10-14T02:11:37.492Z,0
2017-10-14T02:12:37.100Z,0
2017-10-14T02:13:37.164Z,0
2017-10-14T02:14:37.228Z,0
2017-10-14T02:15:37.643Z,0
2017-10-14T02:16:37.522Z,0
2017-10-14T02:17:37.149Z,0
2017-10-14T02:18:37.114Z,0
2017-10-14T02:19:36.741Z,0
2017-10-14T02:20:37.372Z,0
2017-10-14T02:21:37.031Z,0
2017-10-14T02:22:37.342Z,0
2017-10-14T02:23:37.071Z,0
2017-10-14T02:24:36.974Z,0
2017-10-14T02:25:37.555Z,0
2017-10-14T02:26:37.970Z,0
2017-10-14T02:27:38.590Z,0
2017-10-14T02:28:36.909Z,0
2017-10-14T02:29:36.894Z,0
2017-10-14T02:30:36.891Z,0
2017-10-14T02:31:35.911Z,0
2017-10-14T02:32:37.794Z,0
2017-10-14T02:33:36.496Z,0
2017-10-14T02:34:36.482Z,0
2017-10-14T02:35:37.120Z,0
2017-10-14T02:36:36.779Z,0
2017-10-14T02:37:36.781Z,0
2017-10-14T02:38:36.446Z,0
2017-10-14T02:39:36.740Z,0
2017-10-14T02:40:36.711Z,0
2017-10-14T02:41:36.426Z,0
2017-10-14T02:42:36.436Z,0
2017-10-14T02:43:36.709Z,0
2017-10-14T02:44:36.969Z,0
2017-10-14T02:45:36.623Z,0
2017-10-14T02:46:36.248Z,0
2017-10-14T02:47:36.593Z,0
2017-10-14T02:48:36.586Z,0
2017-10-14T02:49:36.560Z,0
2017-10-14T02:50:36.539Z,0
2017-10-14T02:51:36.220Z,0
2017-10-14T02:52:36.852Z,0
2017-10-14T02:53:36.531Z,0
2017-10-14T02:54:36.182Z,0
2017-10-14T02:55:36.181Z,0
2017-10-14T02:56:36.131Z,0
2017-10-14T02:57:36.094Z,0
2017-10-14T02:58:36.731Z,0
2017-10-14T02:59:36.401Z,0
2017-10-14T03:00:36.380Z,0
2017-10-14T03:01:36.041Z,0
2017-10-14T03:02:36.021Z,0
2017-10-14T03:03:36.330Z,0
2017-10-14T03:04:36.308Z,0
2017-10-14T03:05:36.330Z,0
2017-10-14T03:06:35.954Z,0
2017-10-14T03:07:36.270Z,0
2017-10-14T03:08:35.586Z,0
2017-10-14T03:09:35.914Z,0
2017-10-14T03:10:36.209Z,0
2017-10-14T03:11:35.867Z,0
2017-10-14T03:12:36.226Z,0
2017-10-14T03:13:36.152Z,0
2017-10-14T03:14:36.929Z,0
2017-10-14T03:15:35.805Z,0
2017-10-14T03:16:36.440Z,0
2017-10-14T03:17:36.686Z,0
2017-10-14T03:18:36.099Z,0
2017-10-14T03:19:36.071Z,0
2017-10-14T03:20:36.050Z,0
2017-10-14T03:21:36.020Z,0
2017-10-14T03:22:36.020Z,0
2017-10-14T03:23:36.088Z,0
2017-10-14T03:24:35.970Z,0
2017-10-14T03:25:36.251Z,0
2017-10-14T03:26:36.240Z,0
2017-10-14T03:27:36.226Z,0
2017-10-14T03:28:35.883Z,0
2017-10-14T03:29:36.211Z,0
2017-10-14T03:30:36.191Z,0
2017-10-14T03:31:36.196Z,0
2017-10-14T03:32:36.163Z,0
2017-10-14T03:33:36.271Z,0
2017-10-14T03:34:36.130Z,0
2017-10-14T03:35:36.090Z,0
2017-10-14T03:36:35.780Z,0
2017-10-14T03:37:36.071Z,0
2017-10-14T03:38:36.060Z,0
2017-10-14T03:39:35.380Z,0
2017-10-14T03:40:37.770Z,0
2017-10-14T03:41:48.702Z,0
2017-10-14T03:42:35.975Z,0
2017-10-14T03:43:36.193Z,0
2017-10-14T03:44:35.940Z,0
2017-10-14T03:45:37.286Z,0
2017-10-14T03:46:35.916Z,0
2017-10-14T03:47:35.234Z,0
2017-10-14T03:48:36.939Z,0
2017-10-14T03:49:36.540Z,0
2017-10-14T03:50:38.065Z,0
2017-10-14T03:51:35.851Z,0
2017-10-14T03:52:35.141Z,0
2017-10-14T03:53:35.142Z,0
2017-10-14T03:54:35.460Z,0
2017-10-14T03:55:35.439Z,0
2017-10-14T03:56:34.760Z,0
2017-10-14T03:57:35.719Z,0
2017-10-14T03:58:35.819Z,0
2017-10-14T03:59:35.688Z,0
2017-10-14T04:00:40.890Z,0
2017-10-14T04:01:35.331Z,0
2017-10-14T04:02:35.905Z,0
2017-10-14T04:03:35.863Z,0
2017-10-14T04:04:35.291Z,0
2017-10-14T04:05:34.927Z,0
2017-10-14T04:06:35.564Z,0
2017-10-14T04:07:34.911Z,0
2017-10-14T04:08:34.881Z,0
2017-10-14T04:09:34.893Z,0
2017-10-14T04:10:34.851Z,0
2017-10-14T04:11:34.818Z,0
2017-10-14T04:12:35.153Z,0
2017-10-14T04:13:34.790Z,0
2017-10-14T04:14:35.478Z,0
2017-10-14T04:15:35.101Z,0
2017-10-14T04:16:34.420Z,0
2017-10-14T04:17:35.302Z,0
2017-10-14T04:18:35.031Z,0
2017-10-14T04:19:35.017Z,0
2017-10-14T04:20:35.009Z,0
2017-10-14T04:21:34.991Z,0
2017-10-14T04:22:35.010Z,0
2017-10-14T04:23:34.684Z,0
2017-10-14T04:24:34.612Z,0
2017-10-14T04:25:34.910Z,0
2017-10-14T04:26:34.946Z,0
2017-10-14T04:27:35.200Z,0
2017-10-14T04:28:34.857Z,0
2017-10-14T04:29:34.828Z,0
2017-10-14T04:30:34.510Z,0
2017-10-14T04:31:34.802Z,0
2017-10-14T04:32:33.813Z,0
2017-10-14T04:33:34.783Z,0
2017-10-14T04:34:34.419Z,0
2017-10-14T04:35:35.058Z,0
2017-10-14T04:36:35.054Z,0
2017-10-14T04:37:35.030Z,0
2017-10-14T04:38:35.019Z,0
2017-10-14T04:39:34.670Z,0
2017-10-14T04:40:34.667Z,0
2017-10-14T04:41:34.143Z,0
2017-10-14T04:42:34.657Z,0
2017-10-14T04:43:34.649Z,0
2017-10-14T04:44:34.753Z,0
2017-10-14T04:45:34.581Z,0
2017-10-14T04:46:34.861Z,0
2017-10-14T04:47:34.607Z,0
2017-10-14T04:48:34.211Z,0
2017-10-14T04:49:34.183Z,0
2017-10-14T04:50:34.472Z,0
2017-10-14T04:51:33.892Z,0
2017-10-14T04:52:34.790Z,0
2017-10-14T04:53:34.811Z,0
2017-10-14T04:54:34.174Z,0
2017-10-14T04:55:34.715Z,0
2017-10-14T04:56:34.811Z,0
2017-10-14T04:57:34.042Z,0
2017-10-14T04:58:34.423Z,0
2017-10-14T04:59:34.334Z,0
2017-10-14T05:00:34.391Z,0
2017-10-14T05:01:34.359Z,0
2017-10-14T05:02:34.348Z,0
2017-10-14T05:03:34.237Z,0
2017-10-14T05:04:34.320Z,0
2017-10-14T05:05:34.232Z,0
2017-10-14T05:06:33.914Z,0
2017-10-14T05:07:33.881Z,0
2017-10-14T05:08:34.239Z,0
2017-10-14T05:09:34.460Z,0
2017-10-14T05:10:34.131Z,0
2017-10-14T05:11:34.109Z,0
2017-10-14T05:12:34.117Z,0
2017-10-14T05:13:34.072Z,0
2017-10-14T05:14:34.064Z,0
2017-10-14T05:15:33.739Z,0
2017-10-14T05:16:33.715Z,0
2017-10-14T05:17:34.142Z,0
2017-10-14T05:18:33.987Z,0
2017-10-14T05:19:34.076Z,0
2017-10-14T05:20:34.270Z,0
2017-10-14T05:21:33.620Z,0
2017-10-14T05:22:34.321Z,0
2017-10-14T05:23:33.953Z,0
2017-10-14T05:24:33.245Z,0
2017-10-14T05:25:33.550Z,0
2017-10-14T05:26:33.536Z,0
2017-10-14T05:27:33.503Z,0
2017-10-14T05:28:33.832Z,0
2017-10-14T05:29:33.803Z,0
2017-10-14T05:30:33.780Z,0
2017-10-14T05:31:33.441Z,0
2017-10-14T05:32:33.093Z,0
2017-10-14T05:33:33.418Z,0
2017-10-14T05:34:33.763Z,0
2017-10-14T05:35:33.702Z,0
2017-10-14T05:36:33.674Z,0
2017-10-14T05:37:33.738Z,0
2017-10-14T05:38:33.662Z,0
2017-10-14T05:39:33.312Z,0
2017-10-14T05:40:33.618Z,0
2017-10-14T05:41:33.619Z,0
2017-10-14T05:42:33.262Z,0
2017-10-14T05:43:33.659Z,0
2017-10-14T05:44:33.890Z,0
2017-10-14T05:45:33.603Z,0
2017-10-14T05:46:33.197Z,0
2017-10-14T05:47:33.598Z,0
2017-10-14T05:48:33.487Z,0
2017-10-14T05:49:33.513Z,0
2017-10-14T05:50:33.793Z,5
2017-10-14T05:51:33.752Z,5
2017-10-14T05:52:33.762Z,5
2017-10-14T05:53:33.819Z,5
2017-10-14T05:54:33.702Z,5
2017-10-14T05:55:33.772Z,5
2017-10-14T05:56:33.648Z,5
2017-10-14T05:57:33.683Z,5
2017-10-14T05:58:33.640Z,10
2017-10-14T05:59:33.296Z,10
2017-10-14T06:00:33.280Z,10
2017-10-14T06:01:33.228Z,10
2017-10-14T06:02:33.552Z,10
2017-10-14T06:03:33.221Z,10
2017-10-14T06:04:33.194Z,15
2017-10-14T06:05:33.585Z,15
2017-10-14T06:06:33.555Z,15
2017-10-14T06:07:33.564Z,15
2017-10-14T06:08:33.108Z,15
2017-10-14T06:09:33.139Z,20
2017-10-14T06:10:33.058Z,20
2017-10-14T06:11:33.158Z,20
2017-10-14T06:12:32.721Z,25
2017-10-14T06:13:33.037Z,25
2017-10-14T06:14:32.997Z,25
2017-10-14T06:15:33.371Z,25
2017-10-14T06:16:33.300Z,30
2017-10-14T06:17:33.076Z,30
2017-10-14T06:18:32.943Z,35
2017-10-14T06:19:33.281Z,65
2017-10-14T06:20:32.345Z,125
2017-10-14T06:21:32.889Z,155
2017-10-14T06:22:32.963Z,165
2017-10-14T06:23:33.170Z,180
2017-10-14T06:24:32.496Z,185
2017-10-14T06:25:32.588Z,195
2017-10-14T06:26:32.465Z,200
2017-10-14T06:27:32.524Z,215
2017-10-14T06:28:32.761Z,230
2017-10-14T06:29:33.075Z,230
2017-10-14T06:30:31.765Z,240
2017-10-14T06:31:33.044Z,255
2017-10-14T06:32:32.686Z,290
2017-10-14T06:33:32.701Z,300
2017-10-14T06:34:32.696Z,305
2017-10-14T06:35:32.641Z,320
2017-10-14T06:36:32.622Z,325
2017-10-14T06:37:33.005Z,360
2017-10-14T06:38:32.280Z,380
2017-10-14T06:39:32.602Z,390
2017-10-14T06:40:32.245Z,400
2017-10-14T06:41:32.926Z,410
2017-10-14T06:42:32.544Z,410
2017-10-14T06:43:32.548Z,425
2017-10-14T06:44:32.525Z,455
2017-10-14T06:45:32.492Z,485
2017-10-14T06:46:32.498Z,455
2017-10-14T06:47:31.836Z,485
2017-10-14T06:48:32.593Z,540
2017-10-14T06:49:32.127Z,540
2017-10-14T06:50:32.419Z,555
2017-10-14T06:51:32.465Z,530
2017-10-14T06:52:32.726Z,520
2017-10-14T06:53:32.059Z,530
2017-10-14T06:54:32.677Z,555
2017-10-14T06:55:32.463Z,595
2017-10-14T06:56:32.673Z,625
2017-10-14T06:57:32.346Z,690
2017-10-14T06:58:32.451Z,700
2017-10-14T06:59:32.661Z,700
2017-10-14T07:00:32.612Z,725
2017-10-14T07:01:32.582Z,740
2017-10-14T07:02:32.271Z,755
2017-10-14T07:03:32.581Z,760
2017-10-14T07:04:32.252Z,755
2017-10-14T07:05:32.634Z,785
2017-10-14T07:06:32.223Z,765
2017-10-14T07:07:31.923Z,790
2017-10-14T07:08:32.475Z,835
2017-10-14T07:09:32.515Z,825
2017-10-14T07:10:32.525Z,820
2017-10-14T07:11:32.497Z,850
2017-10-14T07:13:01.292Z,860
2017-10-14T07:13:32.602Z,860
2017-10-14T07:14:32.467Z,905
2017-10-14T07:15:32.450Z,910
2017-10-14T07:16:31.839Z,945
2017-10-14T07:17:32.683Z,985
2017-10-14T07:18:32.417Z,970
2017-10-14T07:19:32.161Z,970
2017-10-14T07:20:32.098Z,1000
2017-10-14T07:21:32.471Z,1050
2017-10-14T07:22:31.722Z,1060
2017-10-14T07:23:32.059Z,1025
2017-10-14T07:24:31.074Z,995
2017-10-14T07:25:32.033Z,940
2017-10-14T07:26:31.696Z,935
2017-10-14T07:27:32.035Z,905
2017-10-14T07:28:32.005Z,810
2017-10-14T07:29:32.384Z,785
2017-10-14T07:30:32.384Z,835
2017-10-14T07:31:31.683Z,890
2017-10-14T07:32:32.010Z,975
2017-10-14T07:33:32.357Z,1065
2017-10-14T07:34:31.640Z,1160
2017-10-14T07:35:32.316Z,1160
2017-10-14T07:36:31.942Z,1170
2017-10-14T07:37:31.684Z,1170
2017-10-14T07:38:31.962Z,1180
2017-10-14T07:39:31.912Z,1165
2017-10-14T07:40:32.252Z,1240
2017-10-14T07:41:32.230Z,1295
2017-10-14T07:42:31.912Z,1280
2017-10-14T07:43:31.582Z,1235
2017-10-14T07:44:31.885Z,1235
2017-10-14T07:45:31.892Z,1245
2017-10-14T07:46:31.878Z,1255
2017-10-14T07:47:32.217Z,1270
2017-10-14T07:48:32.224Z,1285
2017-10-14T07:49:32.184Z,1260
2017-10-14T07:50:32.198Z,1260
2017-10-14T07:51:31.926Z,1275
2017-10-14T07:52:31.525Z,1295
2017-10-14T07:53:31.862Z,1260
2017-10-14T07:54:31.531Z,1280
2017-10-14T07:55:32.294Z,1315
2017-10-14T07:56:32.277Z,1335
2017-10-14T07:57:31.912Z,1330
2017-10-14T07:58:31.837Z,1325
2017-10-14T07:59:31.513Z,1320
2017-10-14T08:00:32.183Z,1315
2017-10-14T08:01:31.825Z,1365
2017-10-14T08:02:32.164Z,1400
2017-10-14T08:03:31.501Z,1405
2017-10-14T08:04:32.156Z,1330
2017-10-14T08:05:31.818Z,1370
2017-10-14T08:06:32.193Z,1415
2017-10-14T08:07:31.925Z,1405
2017-10-14T08:08:31.472Z,1350
2017-10-14T08:09:31.785Z,1365
2017-10-14T08:10:31.787Z,1390
2017-10-14T08:11:32.123Z,1420
2017-10-14T08:12:31.773Z,1455
2017-10-14T08:13:32.084Z,1415
2017-10-14T08:14:31.489Z,1425
2017-10-14T08:15:32.103Z,1415
2017-10-14T08:16:32.348Z,1445
2017-10-14T08:17:32.055Z,1445
2017-10-14T08:18:31.825Z,1475
2017-10-14T08:19:32.075Z,1445
2017-10-14T08:20:31.115Z,1475
2017-10-14T08:21:31.102Z,1490
2017-10-14T08:22:32.084Z,1495
2017-10-14T08:23:31.826Z,1475
2017-10-14T08:24:31.731Z,1475
2017-10-14T08:25:31.754Z,1470
2017-10-14T08:26:32.092Z,1475
2017-10-14T08:27:32.152Z,1445
2017-10-14T08:28:32.044Z,1475
2017-10-14T08:29:32.162Z,1520
2017-10-14T08:30:32.116Z,1600
2017-10-14T08:31:32.134Z,1590
2017-10-14T08:32:31.797Z,1575
2017-10-14T08:33:31.727Z,1555
2017-10-14T08:34:32.123Z,1570
2017-10-14T08:35:31.410Z,1545
2017-10-14T08:36:31.733Z,1540
2017-10-14T08:37:32.134Z,1520
2017-10-14T08:38:31.472Z,1440
2017-10-14T08:39:31.383Z,1450
2017-10-14T08:40:31.682Z,1600
2017-10-14T08:41:31.704Z,1585
2017-10-14T08:42:31.394Z,1475
2017-10-14T08:43:31.702Z,1440
2017-10-14T08:44:31.703Z,1400
2017-10-14T08:45:31.367Z,1430
2017-10-14T08:46:32.015Z,1530
2017-10-14T08:47:31.363Z,1600
2017-10-14T08:48:32.015Z,1555
2017-10-14T08:49:31.686Z,1495
2017-10-14T08:50:31.355Z,1485
2017-10-14T08:51:31.334Z,1425
2017-10-14T08:52:31.794Z,1440
2017-10-14T08:53:31.504Z,1485
2017-10-14T08:54:31.741Z,1530
2017-10-14T08:55:31.362Z,1585
2017-10-14T08:56:31.743Z,1465
2017-10-14T08:57:31.034Z,1415
2017-10-14T08:58:31.659Z,1425
2017-10-14T08:59:31.455Z,1430
2017-10-14T09:00:32.032Z,1450
2017-10-14T09:01:31.415Z,1435
2017-10-14T09:02:31.712Z,1415
2017-10-14T09:03:31.807Z,1360
2017-10-14T09:04:31.637Z,1385
2017-10-14T09:05:31.378Z,1385
2017-10-14T09:06:31.656Z,1360
2017-10-14T09:07:31.647Z,1435
2017-10-14T09:08:31.642Z,1410
2017-10-14T09:09:31.658Z,1460
2017-10-14T09:10:31.662Z,1360
2017-10-14T09:11:31.296Z,1285
2017-10-14T09:12:31.965Z,1320
2017-10-14T09:13:31.640Z,1330
2017-10-14T09:14:31.633Z,1335
2017-10-14T09:15:31.650Z,1360
2017-10-14T09:16:31.342Z,1440
2017-10-14T09:17:31.942Z,1355
2017-10-14T09:18:31.940Z,1225
2017-10-14T09:19:31.677Z,1300
2017-10-14T09:20:31.308Z,1340
2017-10-14T09:21:31.601Z,1300
2017-10-14T09:22:31.952Z,1275
2017-10-14T09:23:31.962Z,1295
2017-10-14T09:24:31.622Z,1275
2017-10-14T09:25:30.985Z,1230
2017-10-14T09:26:31.631Z,1315
2017-10-14T09:27:31.278Z,1485
2017-10-14T09:28:31.613Z,1390
2017-10-14T09:29:31.590Z,1225
2017-10-14T09:30:31.981Z,1280
2017-10-14T09:31:31.623Z,1145
2017-10-14T09:32:31.961Z,1145
2017-10-14T09:33:31.272Z,1285
2017-10-14T09:34:31.610Z,1215
2017-10-14T09:35:31.921Z,1215
2017-10-14T09:36:31.593Z,1245
2017-10-14T09:37:31.251Z,1230
2017-10-14T09:38:31.974Z,1190
2017-10-14T09:39:31.588Z,1145
2017-10-14T09:40:31.254Z,1160
2017-10-14T09:41:31.923Z,1205
2017-10-14T09:42:31.560Z,1065
2017-10-14T09:43:31.584Z,1090
2017-10-14T09:44:31.564Z,1170
2017-10-14T09:45:31.885Z,1160
2017-10-14T09:46:31.619Z,1235
2017-10-14T09:47:31.649Z,1195
2017-10-14T09:48:31.212Z,1180
2017-10-14T09:49:31.910Z,1195
2017-10-14T09:50:31.551Z,1130
2017-10-14T09:51:31.874Z,1140
2017-10-14T09:52:31.910Z,1060
2017-10-14T09:53:31.212Z,1090
2017-10-14T09:54:31.542Z,1170
2017-10-14T09:55:31.538Z,1145
2017-10-14T09:56:31.867Z,1125
2017-10-14T09:57:31.981Z,1130
2017-10-14T09:58:31.524Z,1070
2017-10-14T09:59:31.572Z,1015
2017-10-14T10:00:31.592Z,1065
2017-10-14T10:01:31.532Z,1055
2017-10-14T10:02:31.963Z,1015
2017-10-14T10:03:31.874Z,980
2017-10-14T10:04:31.528Z,990
2017-10-14T10:05:31.922Z,950
2017-10-14T10:06:31.497Z,960
2017-10-14T10:07:31.217Z,960
2017-10-14T10:08:31.826Z,1035
2017-10-14T10:09:31.491Z,1075
2017-10-14T10:10:31.493Z,970
2017-10-14T10:11:31.183Z,925
2017-10-14T10:12:31.501Z,900
2017-10-14T10:13:31.811Z,820
2017-10-14T10:14:31.794Z,855
2017-10-14T10:15:31.477Z,890
2017-10-14T10:16:31.302Z,860
2017-10-14T10:17:31.491Z,850
2017-10-14T10:18:31.773Z,890
2017-10-14T10:19:31.480Z,865
2017-10-14T10:20:31.813Z,845
2017-10-14T10:21:31.772Z,845
2017-10-14T10:22:31.504Z,855
2017-10-14T10:23:31.142Z,880
2017-10-14T10:24:31.831Z,825
2017-10-14T10:25:31.554Z,800
2017-10-14T10:26:31.893Z,815
2017-10-14T10:27:31.545Z,770
2017-10-14T10:28:31.861Z,745
2017-10-14T10:29:31.428Z,700
2017-10-14T10:30:31.800Z,775
2017-10-14T10:31:31.792Z,990
2017-10-14T10:32:31.443Z,835
2017-10-14T10:33:31.086Z,580
2017-10-14T10:34:31.431Z,510
2017-10-14T10:35:31.739Z,520
2017-10-14T10:36:31.411Z,550
2017-10-14T10:37:31.382Z,560
2017-10-14T10:38:31.415Z,550
2017-10-14T10:39:31.367Z,540
2017-10-14T10:40:31.379Z,550
2017-10-14T10:41:31.058Z,585
2017-10-14T10:42:31.368Z,605
2017-10-14T10:43:31.089Z,650
2017-10-14T10:44:31.667Z,690
2017-10-14T10:45:31.393Z,730
2017-10-14T10:46:31.025Z,890
2017-10-14T10:47:31.702Z,980
2017-10-14T10:48:31.035Z,995
2017-10-14T10:49:31.701Z,1050
2017-10-14T10:50:31.701Z,1145
2017-10-14T10:51:31.646Z,1155
2017-10-14T10:52:31.365Z,1055
2017-10-14T10:53:31.635Z,1020
2017-10-14T10:54:31.305Z,995
2017-10-14T10:55:31.322Z,1000
2017-10-14T10:56:31.423Z,1030
2017-10-14T10:57:31.324Z,1125
2017-10-14T10:58:31.311Z,1125
2017-10-14T10:59:31.280Z,1075
2017-10-14T11:00:31.310Z,1120
2017-10-14T11:01:31.673Z,1100
2017-10-14T11:02:31.269Z,190
2017-10-14T11:03:31.392Z,1060
2017-10-14T11:04:31.661Z,1090
2017-10-14T11:05:31.600Z,1045
2017-10-14T11:06:31.643Z,1055
2017-10-14T11:07:31.574Z,1075
2017-10-14T11:08:31.286Z,1020
2017-10-14T11:09:31.249Z,1060
2017-10-14T11:10:31.561Z,1060
2017-10-14T11:11:31.540Z,1035
2017-10-14T11:12:31.528Z,1055
2017-10-14T11:13:31.513Z,1035
2017-10-14T11:14:31.528Z,980
2017-10-14T11:15:31.243Z,1005
2017-10-14T11:16:31.218Z,995
2017-10-14T11:17:31.520Z,980
2017-10-14T11:18:31.235Z,1000
2017-10-14T11:19:31.510Z,980
2017-10-14T11:20:31.495Z,985
2017-10-14T11:21:31.499Z,995
2017-10-14T11:22:31.162Z,980
2017-10-14T11:23:31.151Z,1000
2017-10-14T11:24:31.179Z,1010
2017-10-14T11:25:31.465Z,975
2017-10-14T11:26:31.486Z,985
2017-10-14T11:27:31.490Z,990
2017-10-14T11:28:31.115Z,1045
2017-10-14T11:29:31.131Z,990
2017-10-14T11:30:31.440Z,1010
2017-10-14T11:31:31.120Z,1060
2017-10-14T11:32:31.510Z,1060
2017-10-14T11:33:31.409Z,1075
2017-10-14T11:34:31.414Z,1100
2017-10-14T11:35:31.398Z,1135
2017-10-14T11:36:31.417Z,895
2017-10-14T11:37:31.150Z,570
2017-10-14T11:38:31.380Z,345
2017-10-14T11:39:31.064Z,235
2017-10-14T11:40:31.052Z,240
2017-10-14T11:41:31.468Z,250
2017-10-14T11:42:31.431Z,265
2017-10-14T11:43:31.349Z,320
2017-10-14T11:44:31.389Z,375
2017-10-14T11:45:31.402Z,495
2017-10-14T11:46:31.338Z,710
2017-10-14T11:47:31.319Z,740
2017-10-14T11:48:31.342Z,670
2017-10-14T11:49:31.338Z,640
2017-10-14T11:50:31.303Z,570
2017-10-14T11:51:31.341Z,500
2017-10-14T11:52:30.965Z,425
2017-10-14T11:53:31.294Z,140
2017-10-14T11:54:31.294Z,200
2017-10-14T11:55:31.311Z,200
2017-10-14T11:56:31.275Z,330
2017-10-14T11:57:31.276Z,170
2017-10-14T11:58:31.259Z,315
2017-10-14T11:59:31.225Z,280
2017-10-14T12:00:31.233Z,295
2017-10-14T12:01:31.240Z,295
2017-10-14T12:02:31.221Z,295
2017-10-14T12:03:31.236Z,280
2017-10-14T12:04:30.862Z,285
2017-10-14T12:05:31.215Z,285
2017-10-14T12:06:31.181Z,290
2017-10-14T12:07:31.194Z,295
2017-10-14T12:08:30.570Z,290
2017-10-14T12:09:31.189Z,285
2017-10-14T12:10:31.185Z,290
2017-10-14T12:11:31.152Z,285
2017-10-14T12:12:31.202Z,290
2017-10-14T12:13:30.474Z,290
2017-10-14T12:14:31.220Z,230
2017-10-14T12:15:31.131Z,285
2017-10-14T12:16:31.201Z,275
2017-10-14T12:17:31.150Z,280
2017-10-14T12:18:30.771Z,280
2017-10-14T12:19:31.099Z,270
2017-10-14T12:20:30.759Z,270
2017-10-14T12:21:30.749Z,280
2017-10-14T12:22:31.073Z,280
2017-10-14T12:23:31.072Z,275
2017-10-14T12:24:31.054Z,270
2017-10-14T12:25:31.023Z,275
2017-10-14T12:26:30.691Z,280
2017-10-14T12:27:30.740Z,280
2017-10-14T12:28:30.026Z,250
2017-10-14T12:29:30.358Z,265
2017-10-14T12:30:30.667Z,285
2017-10-14T12:31:30.700Z,295
2017-10-14T12:32:30.652Z,285
2017-10-14T12:33:30.639Z,275
2017-10-14T12:34:30.630Z,285
2017-10-14T12:35:30.949Z,120
2017-10-14T12:36:30.952Z,220
2017-10-14T12:37:30.951Z,270
2017-10-14T12:38:30.625Z,115
2017-10-14T12:39:30.596Z,265
2017-10-14T12:40:30.915Z,260
2017-10-14T12:41:30.900Z,255
2017-10-14T12:42:30.939Z,260
2017-10-14T12:43:30.890Z,260
2017-10-14T12:44:30.575Z,185
2017-10-14T12:45:30.919Z,260
2017-10-14T12:46:30.309Z,265
2017-10-14T12:47:30.583Z,260
2017-10-14T12:48:30.630Z,260
2017-10-14T12:49:30.528Z,260
2017-10-14T12:50:30.965Z,265
2017-10-14T12:51:30.822Z,265
2017-10-14T12:52:30.501Z,260
2017-10-14T12:53:30.955Z,255
2017-10-14T12:54:30.818Z,255
2017-10-14T12:55:30.858Z,250
2017-10-14T12:56:30.469Z,245
2017-10-14T12:57:30.531Z,105
2017-10-14T12:58:30.828Z,230
2017-10-14T12:59:30.757Z,240
2017-10-14T13:00:30.760Z,240
2017-10-14T13:01:30.769Z,240
2017-10-14T13:02:30.127Z,235
2017-10-14T13:03:30.773Z,230
2017-10-14T13:04:30.740Z,225
2017-10-14T13:05:30.416Z,220
2017-10-14T13:06:30.765Z,220
2017-10-14T13:07:30.066Z,220
2017-10-14T13:08:30.734Z,220
2017-10-14T13:09:30.049Z,220
2017-10-14T13:10:29.737Z,195
2017-10-14T13:11:30.357Z,220
2017-10-14T13:12:30.729Z,220
2017-10-14T13:13:30.330Z,215
2017-10-14T13:14:30.000Z,215
2017-10-14T13:15:30.319Z,215
2017-10-14T13:16:30.669Z,110
2017-10-14T13:17:30.302Z,195
2017-10-14T13:18:30.643Z,215
2017-10-14T13:19:30.631Z,220
2017-10-14T13:20:30.272Z,215
2017-10-14T13:21:30.269Z,125
2017-10-14T13:22:30.609Z,110
2017-10-14T13:23:30.588Z,215
2017-10-14T13:24:30.268Z,215
2017-10-14T13:25:29.612Z,145
2017-10-14T13:26:30.229Z,220
2017-10-14T13:27:30.205Z,220
2017-10-14T13:28:30.206Z,220
2017-10-14T13:29:30.564Z,190
2017-10-14T13:30:30.534Z,210
2017-10-14T13:31:30.186Z,215
2017-10-14T13:32:29.872Z,210
2017-10-14T13:33:30.179Z,105
2017-10-14T13:34:30.199Z,210
2017-10-14T13:35:30.160Z,205
2017-10-14T13:36:30.164Z,210
2017-10-14T13:37:30.519Z,205
2017-10-14T13:38:30.602Z,205
2017-10-14T13:39:29.863Z,200
2017-10-14T13:40:30.533Z,125
2017-10-14T13:41:30.573Z,200
2017-10-14T13:42:30.731Z,205
2017-10-14T13:43:30.204Z,205
2017-10-14T13:44:30.484Z,200
2017-10-14T13:45:30.521Z,150
2017-10-14T13:46:30.402Z,195
2017-10-14T13:47:30.530Z,195
2017-10-14T13:48:30.050Z,190
2017-10-14T13:49:30.099Z,190
2017-10-14T13:50:30.036Z,190
2017-10-14T13:51:30.026Z,185
2017-10-14T13:52:29.997Z,135
2017-10-14T13:53:30.023Z,170
2017-10-14T13:54:30.408Z,90
2017-10-14T13:55:29.986Z,75
2017-10-14T13:56:30.318Z,165
2017-10-14T13:57:30.105Z,100
2017-10-14T13:58:30.292Z,170
2017-10-14T13:59:29.658Z,180
2017-10-14T14:00:30.342Z,175
2017-10-14T14:01:30.278Z,180
2017-10-14T14:02:29.982Z,180
2017-10-14T14:03:29.913Z,180
2017-10-14T14:04:29.886Z,180
2017-10-14T14:05:30.237Z,180